createdAt,value
2023-02-27T00:00:47.043Z,0.80
2023-02-27T00:03:13.794Z,0.80
2023-02-27T00:05:42.500Z,0.80
2023-02-27T00:08:09.437Z,0.80
2023-02-27T00:10:36.445Z,0.90
2023-02-27T00:13:03.167Z,0.90
2023-02-27T00:15:32.825Z,0.80
2023-02-27T00:18:00.179Z,0.80
2023-02-27T00:20:27.620Z,0.90
2023-02-27T00:22:54.433Z,0.80
2023-02-27T00:25:21.157Z,0.80
2023-02-27T00:27:47.822Z,0.80
2023-02-27T00:30:15.776Z,0.80
2023-02-27T00:32:43.355Z,0.80
2023-02-27T00:35:11.527Z,0.70
2023-02-27T00:37:38.768Z,0.70
2023-02-27T00:40:06.553Z,0.80
2023-02-27T00:42:33.635Z,0.80
2023-02-27T00:45:00.380Z,0.70
2023-02-27T00:47:27.075Z,0.80
2023-02-27T00:49:53.726Z,0.80
2023-02-27T00:52:20.466Z,0.70
2023-02-27T00:54:47.128Z,0.70
2023-02-27T00:57:13.829Z,0.70
2023-02-27T00:59:40.607Z,0.70
2023-02-27T01:02:07.404Z,0.70
2023-02-27T01:04:34.156Z,0.70
2023-02-27T01:07:00.867Z,0.60
2023-02-27T01:09:27.565Z,0.70
2023-02-27T01:11:54.333Z,0.60
2023-02-27T01:14:21.037Z,0.60
2023-02-27T01:16:47.690Z,0.50
2023-02-27T01:19:14.363Z,0.50
2023-02-27T01:21:42.008Z,0.50
2023-02-27T01:24:09.665Z,0.60
2023-02-27T01:26:36.631Z,0.50
2023-02-27T01:29:06.210Z,0.50
2023-02-27T01:31:33.493Z,0.60
2023-02-27T01:34:00.297Z,0.50
2023-02-27T01:36:26.949Z,0.50
2023-02-27T01:38:53.819Z,0.50
2023-02-27T01:41:21.152Z,0.50
2023-02-27T01:44:00.858Z,0.50
2023-02-27T01:46:28.658Z,0.50
2023-02-27T01:49:03.894Z,0.50
2023-02-27T01:51:36.111Z,0.50
2023-02-27T01:54:07.054Z,0.50
2023-02-27T01:56:33.921Z,0.40
2023-02-27T01:59:07.692Z,0.40
2023-02-27T02:01:35.165Z,0.40
2023-02-27T02:04:27.985Z,0.40
2023-02-27T02:07:07.159Z,0.40
2023-02-27T02:09:38.937Z,0.40
2023-02-27T02:12:06.053Z,0.40
2023-02-27T02:14:32.783Z,0.30
2023-02-27T02:17:35.429Z,0.30
2023-02-27T02:20:43.734Z,0.30
2023-02-27T02:23:40.357Z,0.30
2023-02-27T02:26:12.895Z,0.30
2023-02-27T02:28:42.416Z,0.30
2023-02-27T02:31:40.188Z,0.30
2023-02-27T02:34:35.473Z,0.30
2023-02-27T02:37:08.006Z,0.20
2023-02-27T02:39:51.509Z,0.30
2023-02-27T02:42:38.424Z,0.20
2023-02-27T02:45:10.781Z,0.20
2023-02-27T02:48:01.141Z,0.20
2023-02-27T02:50:36.229Z,0.20
2023-02-27T02:53:18.200Z,0.20
2023-02-27T02:55:53.408Z,0.20
2023-02-27T02:58:27.170Z,0.20
2023-02-27T03:01:27.200Z,0.20
2023-02-27T03:03:58.499Z,0.20
2023-02-27T03:06:34.608Z,0.10
2023-02-27T03:09:13.967Z,0.10
2023-02-27T03:11:45.512Z,0.10
2023-02-27T03:14:19.574Z,0.10
2023-02-27T03:16:50.943Z,0.10
2023-02-27T03:19:26.287Z,0.00
2023-02-27T03:22:13.674Z,0.00
2023-02-27T03:24:50.238Z,0.00
2023-02-27T03:27:18.598Z,-0.10
2023-02-27T03:30:03.883Z,-0.10
2023-02-27T03:33:09.175Z,-0.10
2023-02-27T03:36:01.277Z,-0.10
2023-02-27T03:38:42.082Z,-0.10
2023-02-27T03:41:25.938Z,-0.10
2023-02-27T03:43:58.589Z,-0.10
2023-02-27T03:46:27.790Z,-0.20
2023-02-27T03:48:54.535Z,-0.20
2023-02-27T03:51:24.201Z,-0.20
2023-02-27T03:54:14.668Z,-0.30
2023-02-27T03:56:47.443Z,-0.30
2023-02-27T03:59:14.659Z,-0.30
2023-02-27T04:01:43.787Z,-0.30
2023-02-27T04:04:14.016Z,-0.30
2023-02-27T04:07:03.337Z,-0.30
2023-02-27T04:10:04.235Z,-0.30
2023-02-27T04:12:54.468Z,-0.20
2023-02-27T04:15:33.131Z,-0.20
2023-02-27T04:18:24.484Z,-0.30
2023-02-27T04:20:54.874Z,-0.30
2023-02-27T04:23:42.685Z,-0.30
2023-02-27T04:26:36.674Z,-0.30
2023-02-27T04:29:17.327Z,-0.30
2023-02-27T04:32:09.532Z,-0.20
2023-02-27T04:34:45.166Z,-0.20
2023-02-27T04:37:25.847Z,-0.20
2023-02-27T04:40:00.394Z,-0.30
2023-02-27T04:42:37.729Z,-0.30
2023-02-27T04:45:08.601Z,-0.30
2023-02-27T04:47:43.510Z,-0.20
2023-02-27T04:50:16.581Z,-0.20
2023-02-27T04:53:20.026Z,-0.30
2023-02-27T04:56:12.562Z,-0.30
2023-02-27T04:58:52.936Z,-0.30
2023-02-27T05:01:46.159Z,-0.30
2023-02-27T05:04:18.539Z,-0.40
2023-02-27T05:06:48.127Z,-0.40
2023-02-27T05:09:25.198Z,-0.40
2023-02-27T05:12:11.730Z,-0.40
2023-02-27T05:14:56.248Z,-0.40
2023-02-27T05:17:36.418Z,-0.50
2023-02-27T05:20:07.083Z,-0.50
2023-02-27T05:22:44.568Z,-0.50
2023-02-27T05:25:18.128Z,-0.50
2023-02-27T05:27:51.724Z,-0.60
2023-02-27T05:30:44.885Z,-0.60
2023-02-27T05:33:20.680Z,-0.60
2023-02-27T05:35:57.540Z,-0.60
2023-02-27T05:38:33.869Z,-0.60
2023-02-27T05:41:29.593Z,-0.70
2023-02-27T05:44:08.553Z,-0.70
2023-02-27T05:46:39.374Z,-0.80
2023-02-27T05:49:13.927Z,-0.80
2023-02-27T05:51:43.188Z,-0.80
2023-02-27T05:54:31.633Z,-0.70
2023-02-27T05:56:59.614Z,-0.70
2023-02-27T05:59:49.176Z,-0.80
2023-02-27T06:02:16.650Z,-0.90
2023-02-27T06:04:43.346Z,-0.90
2023-02-27T06:07:10.052Z,-0.90
2023-02-27T06:09:36.838Z,-0.90
2023-02-27T06:12:03.590Z,-0.90
2023-02-27T06:14:30.271Z,-0.90
2023-02-27T06:16:57.052Z,-0.90
2023-02-27T06:19:23.869Z,-0.90
2023-02-27T06:21:50.553Z,-0.90
2023-02-27T06:24:17.380Z,-0.90
2023-02-27T06:26:44.182Z,-0.90
2023-02-27T06:29:10.855Z,-0.90
2023-02-27T06:31:37.500Z,-0.90
2023-02-27T06:34:04.161Z,-0.90
2023-02-27T06:36:31.047Z,-0.90
2023-02-27T06:38:57.986Z,-0.90
2023-02-27T06:41:24.742Z,-0.80
2023-02-27T06:43:51.600Z,-0.80
2023-02-27T06:46:18.334Z,-0.80
2023-02-27T06:48:45.570Z,-0.80
2023-02-27T06:51:12.241Z,-0.80
2023-02-27T06:53:38.932Z,-0.80
2023-02-27T06:56:06.082Z,-0.70
2023-02-27T06:58:32.757Z,-0.60
2023-02-27T07:01:00.862Z,-0.60
2023-02-27T07:03:27.530Z,-0.60
2023-02-27T07:05:54.233Z,-0.50
2023-02-27T07:08:20.882Z,-0.50
2023-02-27T07:10:49.289Z,-0.50
2023-02-27T07:13:19.538Z,-0.50
2023-02-27T07:15:46.701Z,-0.40
2023-02-27T07:18:13.447Z,-0.40
2023-02-27T07:20:40.350Z,-0.30
2023-02-27T07:23:07.057Z,-0.20
2023-02-27T07:25:33.773Z,-0.20
2023-02-27T07:28:00.421Z,-0.20
2023-02-27T07:30:27.149Z,-0.10
2023-02-27T07:32:53.810Z,0.00
2023-02-27T07:35:20.541Z,0.10
2023-02-27T07:37:47.602Z,0.10
2023-02-27T07:40:14.869Z,0.10
2023-02-27T07:42:41.604Z,0.10
2023-02-27T07:45:09.711Z,0.20
2023-02-27T07:47:36.495Z,0.20
2023-02-27T07:50:04.796Z,0.20
2023-02-27T07:52:31.713Z,0.30
2023-02-27T07:54:58.510Z,0.40
2023-02-27T07:57:25.469Z,0.50
2023-02-27T07:59:52.155Z,0.60
2023-02-27T08:02:19.299Z,0.70
2023-02-27T08:04:47.157Z,0.70
2023-02-27T08:07:13.933Z,0.70
2023-02-27T08:09:40.630Z,0.80
2023-02-27T08:12:07.345Z,0.90
2023-02-27T08:14:34.076Z,0.90
2023-02-27T08:17:01.182Z,1.00
2023-02-27T08:19:27.906Z,1.00
2023-02-27T08:21:54.621Z,1.10
2023-02-27T08:24:21.542Z,1.10
2023-02-27T08:26:48.476Z,1.00
2023-02-27T08:29:16.958Z,1.00
2023-02-27T08:31:44.730Z,1.10
2023-02-27T08:34:11.506Z,1.10
2023-02-27T08:36:38.765Z,1.10
2023-02-27T08:39:06.790Z,1.20
2023-02-27T08:41:33.788Z,1.30
2023-02-27T08:44:00.565Z,1.40
2023-02-27T08:46:27.581Z,1.60
2023-02-27T08:48:54.708Z,1.50
2023-02-27T08:51:21.539Z,1.60
2023-02-27T08:53:48.218Z,1.70
2023-02-27T08:56:15.012Z,1.70
2023-02-27T08:58:41.698Z,1.80
2023-02-27T09:01:08.436Z,1.80
2023-02-27T09:03:35.150Z,1.80
2023-02-27T09:06:01.822Z,1.80
2023-02-27T09:08:28.609Z,1.80
2023-02-27T09:10:58.578Z,1.90
2023-02-27T09:13:26.763Z,2.00
2023-02-27T09:15:53.780Z,2.20
2023-02-27T09:18:20.739Z,2.30
2023-02-27T09:20:51.013Z,2.50
2023-02-27T09:23:18.744Z,2.60
2023-02-27T09:25:47.427Z,2.80
2023-02-27T09:28:14.241Z,2.90
2023-02-27T09:30:40.972Z,2.90
2023-02-27T09:33:07.668Z,2.90
2023-02-27T09:35:34.403Z,2.90
2023-02-27T09:38:01.061Z,2.90
2023-02-27T09:40:30.668Z,3.10
2023-02-27T09:43:02.832Z,3.20
2023-02-27T09:45:33.211Z,3.10
2023-02-27T09:48:06.493Z,3.00
2023-02-27T09:50:44.284Z,3.10
2023-02-27T09:53:31.442Z,3.20
2023-02-27T09:56:13.647Z,3.20
2023-02-27T09:58:55.495Z,3.10
2023-02-27T10:01:35.217Z,3.00
2023-02-27T10:04:18.391Z,2.80
2023-02-27T10:07:20.604Z,3.10
2023-02-27T10:10:07.524Z,3.30
2023-02-27T10:12:59.690Z,3.40
2023-02-27T10:15:42.645Z,3.40
2023-02-27T10:18:28.164Z,3.40
2023-02-27T10:21:21.412Z,3.80
2023-02-27T10:24:07.755Z,4.30
2023-02-27T10:26:39.604Z,4.70
2023-02-27T10:29:32.479Z,5.30
2023-02-27T10:32:14.141Z,5.70
2023-02-27T10:34:43.787Z,5.90
2023-02-27T10:37:15.842Z,5.50
2023-02-27T10:39:58.683Z,5.20
2023-02-27T10:42:31.504Z,5.30
2023-02-27T10:44:58.296Z,5.00
2023-02-27T10:47:25.982Z,4.90
2023-02-27T10:49:54.571Z,5.00
2023-02-27T10:52:21.350Z,5.00
2023-02-27T10:54:48.310Z,5.10
2023-02-27T10:57:31.000Z,5.10
2023-02-27T11:00:12.044Z,5.10
2023-02-27T11:02:42.803Z,4.80
2023-02-27T11:05:28.971Z,4.70
2023-02-27T11:08:10.280Z,4.60
2023-02-27T11:10:36.975Z,5.00
2023-02-27T11:13:07.198Z,5.10
2023-02-27T11:15:38.310Z,5.30
2023-02-27T11:18:23.640Z,5.50
2023-02-27T11:20:50.786Z,5.50
2023-02-27T11:23:25.263Z,5.80
2023-02-27T11:26:08.856Z,5.60
2023-02-27T11:28:35.576Z,5.30
2023-02-27T11:31:19.387Z,5.40
2023-02-27T11:33:53.269Z,5.60
2023-02-27T11:36:23.525Z,5.50
2023-02-27T11:38:55.115Z,5.60
2023-02-27T11:41:32.431Z,5.50
2023-02-27T11:44:01.991Z,5.70
2023-02-27T11:46:47.398Z,5.90
2023-02-27T11:49:21.451Z,6.10
2023-02-27T11:52:00.750Z,6.10
2023-02-27T11:54:49.136Z,5.60
2023-02-27T11:57:30.297Z,5.40
2023-02-27T12:00:08.432Z,5.20
2023-02-27T12:02:47.152Z,4.90
2023-02-27T12:05:35.770Z,4.80
2023-02-27T12:08:19.847Z,4.90
2023-02-27T12:11:12.369Z,5.30
2023-02-27T12:13:43.605Z,5.50
2023-02-27T12:16:45.052Z,5.70
2023-02-27T12:19:38.514Z,6.20
2023-02-27T12:22:27.812Z,6.80
2023-02-27T12:25:19.378Z,7.00
2023-02-27T12:28:15.181Z,7.40
2023-02-27T12:31:00.422Z,7.10
2023-02-27T12:33:33.995Z,6.60
2023-02-27T12:36:03.442Z,6.30
2023-02-27T12:38:31.328Z,6.10
2023-02-27T12:41:23.285Z,5.90
2023-02-27T12:43:53.002Z,5.50
2023-02-27T12:46:34.060Z,5.30
2023-02-27T12:49:32.487Z,5.30
2023-02-27T12:52:25.513Z,5.50
2023-02-27T12:55:15.066Z,5.50
2023-02-27T12:57:53.528Z,5.50
2023-02-27T13:00:28.101Z,5.50
2023-02-27T13:03:12.030Z,5.30
2023-02-27T13:05:44.586Z,5.50
2023-02-27T13:08:14.092Z,5.50
2023-02-27T13:10:49.024Z,5.50
2023-02-27T13:13:43.243Z,5.40
2023-02-27T13:16:13.689Z,5.40
2023-02-27T13:18:45.874Z,5.10
2023-02-27T13:21:21.531Z,5.20
2023-02-27T13:24:09.295Z,5.20
2023-02-27T13:26:46.480Z,5.00
2023-02-27T13:29:16.863Z,4.90
2023-02-27T13:32:00.150Z,4.80
2023-02-27T13:34:38.685Z,4.70
2023-02-27T13:37:08.641Z,4.80
2023-02-27T13:39:41.508Z,4.80
2023-02-27T13:42:26.891Z,4.70
2023-02-27T13:44:56.164Z,4.90
2023-02-27T13:47:40.403Z,4.90
2023-02-27T13:50:21.096Z,4.80
2023-02-27T13:52:48.460Z,4.70
2023-02-27T13:55:36.855Z,4.80
2023-02-27T13:58:05.270Z,4.80
2023-02-27T14:00:34.524Z,4.90
2023-02-27T14:03:25.660Z,4.80
2023-02-27T14:05:55.912Z,4.50
2023-02-27T14:08:26.694Z,4.40
2023-02-27T14:11:26.528Z,4.30
2023-02-27T14:13:57.667Z,4.30
2023-02-27T14:16:43.994Z,4.20
2023-02-27T14:19:17.683Z,4.30
2023-02-27T14:22:01.481Z,4.30
2023-02-27T14:24:41.401Z,4.30
2023-02-27T14:27:31.965Z,4.30
2023-02-27T14:30:04.324Z,4.20
2023-02-27T14:32:36.876Z,4.20
2023-02-27T14:35:06.102Z,4.10
2023-02-27T14:37:35.592Z,4.00
2023-02-27T14:40:06.154Z,3.90
2023-02-27T14:42:58.481Z,4.00
2023-02-27T14:45:25.241Z,4.00
2023-02-27T14:47:53.004Z,4.00
2023-02-27T14:50:25.263Z,3.90
2023-02-27T14:52:52.007Z,3.80
2023-02-27T14:55:18.668Z,3.80
2023-02-27T14:58:08.187Z,3.80
2023-02-27T15:00:57.939Z,4.00
2023-02-27T15:03:49.658Z,4.10
2023-02-27T15:06:35.599Z,4.10
2023-02-27T15:09:02.758Z,3.90
2023-02-27T15:11:30.008Z,3.90
2023-02-27T15:14:02.974Z,3.90
2023-02-27T15:16:38.129Z,3.80
2023-02-27T15:19:21.131Z,3.70
2023-02-27T15:21:51.276Z,3.60
2023-02-27T15:24:31.416Z,3.60
2023-02-27T15:27:13.365Z,3.50
2023-02-27T15:29:50.115Z,3.60
2023-02-27T15:32:39.757Z,3.60
2023-02-27T15:35:24.478Z,3.60
2023-02-27T15:37:54.969Z,3.60
2023-02-27T15:40:27.857Z,3.70
2023-02-27T15:42:55.449Z,3.60
2023-02-27T15:45:31.131Z,3.70
2023-02-27T15:47:58.002Z,3.90
2023-02-27T15:50:28.418Z,3.90
2023-02-27T15:53:00.632Z,4.00
2023-02-27T15:55:40.592Z,4.00
2023-02-27T15:58:24.909Z,4.10
2023-02-27T16:01:00.640Z,4.00
2023-02-27T16:03:34.171Z,4.00
2023-02-27T16:06:01.376Z,3.90
2023-02-27T16:08:30.899Z,3.70
2023-02-27T16:10:58.165Z,3.70
2023-02-27T16:13:27.665Z,3.60
2023-02-27T16:16:06.380Z,3.50
2023-02-27T16:18:35.460Z,3.40
2023-02-27T16:21:14.304Z,3.40
2023-02-27T16:23:42.089Z,3.30
2023-02-27T16:26:21.119Z,3.10
2023-02-27T16:28:53.751Z,3.00
2023-02-27T16:31:31.022Z,2.90
2023-02-27T16:34:01.541Z,2.90
2023-02-27T16:36:30.746Z,2.90
2023-02-27T16:38:57.691Z,2.80
2023-02-27T16:41:25.310Z,2.80
2023-02-27T16:43:53.285Z,2.80
2023-02-27T16:46:20.704Z,2.70
2023-02-27T16:48:53.239Z,2.60
2023-02-27T16:51:25.218Z,2.70
2023-02-27T16:53:52.786Z,2.70
2023-02-27T16:56:32.210Z,2.70
2023-02-27T16:59:04.235Z,2.70
2023-02-27T17:01:33.575Z,2.70
2023-02-27T17:04:01.035Z,2.60
2023-02-27T17:06:28.424Z,2.60
2023-02-27T17:08:56.030Z,2.60
2023-02-27T17:11:22.868Z,2.50
2023-02-27T17:13:49.559Z,2.50
2023-02-27T17:16:16.422Z,2.40
2023-02-27T17:18:43.123Z,2.40
2023-02-27T17:21:09.765Z,2.40
2023-02-27T17:23:36.528Z,2.40
2023-02-27T17:26:03.277Z,2.40
2023-02-27T17:28:29.969Z,2.40
2023-02-27T17:30:56.811Z,2.30
2023-02-27T17:33:23.503Z,2.30
2023-02-27T17:35:51.391Z,2.30
2023-02-27T17:38:18.115Z,2.30
2023-02-27T17:40:44.790Z,2.30
2023-02-27T17:43:11.642Z,2.30
2023-02-27T17:45:38.578Z,2.40
2023-02-27T17:48:05.505Z,2.30
2023-02-27T17:50:32.426Z,2.30
2023-02-27T17:52:59.201Z,2.30
2023-02-27T17:55:25.875Z,2.30
2023-02-27T17:57:52.578Z,2.20
2023-02-27T18:00:19.818Z,2.20
2023-02-27T18:02:47.871Z,2.20
2023-02-27T18:05:14.689Z,2.20
2023-02-27T18:07:41.481Z,2.20
2023-02-27T18:10:09.300Z,2.20
2023-02-27T18:12:36.990Z,2.10
2023-02-27T18:15:04.440Z,2.10
2023-02-27T18:17:31.624Z,2.10
2023-02-27T18:19:58.453Z,2.10
2023-02-27T18:22:25.712Z,2.10
2023-02-27T18:24:53.876Z,2.10
2023-02-27T18:27:22.092Z,2.10
2023-02-27T18:29:50.024Z,2.10
2023-02-27T18:32:17.580Z,2.00
2023-02-27T18:34:44.988Z,2.00
2023-02-27T18:37:11.655Z,2.10
2023-02-27T18:39:38.481Z,2.10
2023-02-27T18:42:06.747Z,2.10
2023-02-27T18:44:33.618Z,2.10
2023-02-27T18:47:00.393Z,2.10
2023-02-27T18:49:27.149Z,2.10
2023-02-27T18:51:53.888Z,2.10
2023-02-27T18:54:20.581Z,2.10
2023-02-27T18:56:51.059Z,2.10
2023-02-27T18:59:17.878Z,2.10
2023-02-27T19:01:44.651Z,2.10
2023-02-27T19:04:11.351Z,2.10
2023-02-27T19:06:40.914Z,2.20
2023-02-27T19:09:10.058Z,2.20
2023-02-27T19:11:37.304Z,2.10
2023-02-27T19:14:06.640Z,2.10
2023-02-27T19:16:34.282Z,2.20
2023-02-27T19:19:04.835Z,2.20
2023-02-27T19:21:32.873Z,2.10
2023-02-27T19:24:00.677Z,2.20
2023-02-27T19:26:28.122Z,2.20
2023-02-27T19:28:55.727Z,2.20
2023-02-27T19:31:26.056Z,2.20
2023-02-27T19:33:52.952Z,2.20
2023-02-27T19:36:21.794Z,2.10
2023-02-27T19:38:48.910Z,2.20
2023-02-27T19:41:16.912Z,2.20
2023-02-27T19:43:43.978Z,2.20
2023-02-27T19:46:17.167Z,2.20
2023-02-27T19:48:45.199Z,2.20
2023-02-27T19:51:14.380Z,2.20
2023-02-27T19:53:43.836Z,2.20
2023-02-27T19:56:17.298Z,2.20
2023-02-27T19:58:44.975Z,2.20
2023-02-27T20:01:12.339Z,2.20
2023-02-27T20:03:43.775Z,2.10
2023-02-27T20:06:19.469Z,2.10
2023-02-27T20:08:46.583Z,2.10
2023-02-27T20:11:15.497Z,2.10
2023-02-27T20:13:42.129Z,2.20
2023-02-27T20:16:10.188Z,2.20
2023-02-27T20:18:40.728Z,2.20
2023-02-27T20:21:14.408Z,2.20
2023-02-27T20:23:42.935Z,2.20
2023-02-27T20:26:28.082Z,2.20
2023-02-27T20:28:59.280Z,2.20
2023-02-27T20:31:29.074Z,2.10
2023-02-27T20:33:57.089Z,2.10
2023-02-27T20:36:24.245Z,2.10
2023-02-27T20:38:51.015Z,2.10
2023-02-27T20:41:21.947Z,2.00
2023-02-27T20:43:49.354Z,2.00
2023-02-27T20:46:25.125Z,2.00
2023-02-27T20:48:52.164Z,1.90
2023-02-27T20:51:21.819Z,1.90
2023-02-27T20:53:51.478Z,1.80
2023-02-27T20:56:40.530Z,1.90
2023-02-27T20:59:10.085Z,1.90
2023-02-27T21:01:38.456Z,1.90
2023-02-27T21:04:05.737Z,1.80
2023-02-27T21:06:32.913Z,1.80
2023-02-27T21:09:04.464Z,1.80
2023-02-27T21:11:32.156Z,1.80
2023-02-27T21:14:03.182Z,1.80
2023-02-27T21:16:29.937Z,1.70
2023-02-27T21:18:57.119Z,1.60
2023-02-27T21:21:30.519Z,1.60
2023-02-27T21:23:57.987Z,1.40
2023-02-27T21:26:28.261Z,1.50
2023-02-27T21:29:01.196Z,1.40
2023-02-27T21:31:31.908Z,1.50
2023-02-27T21:34:00.626Z,1.50
2023-02-27T21:36:35.623Z,1.40
2023-02-27T21:39:05.807Z,1.50
2023-02-27T21:41:33.427Z,1.50
2023-02-27T21:44:01.783Z,1.50
2023-02-27T21:46:29.241Z,1.40
2023-02-27T21:48:56.088Z,1.40
2023-02-27T21:51:38.242Z,1.30
2023-02-27T21:54:05.958Z,1.20
2023-02-27T21:56:32.706Z,1.20
2023-02-27T21:59:01.679Z,1.30
2023-02-27T22:01:29.446Z,1.20
2023-02-27T22:03:56.749Z,1.20
2023-02-27T22:06:25.251Z,1.20
2023-02-27T22:08:56.617Z,1.20
2023-02-27T22:11:24.534Z,1.20
2023-02-27T22:13:51.284Z,1.20
2023-02-27T22:16:18.949Z,1.20
2023-02-27T22:18:46.460Z,1.20
2023-02-27T22:21:17.103Z,1.20
2023-02-27T22:23:45.285Z,1.30
2023-02-27T22:26:15.033Z,1.20
2023-02-27T22:28:42.171Z,1.20
2023-02-27T22:31:13.275Z,1.20
2023-02-27T22:33:41.566Z,1.20
2023-02-27T22:36:14.304Z,1.20
2023-02-27T22:38:41.185Z,1.20
2023-02-27T22:41:11.230Z,1.20
2023-02-27T22:43:39.655Z,1.10
2023-02-27T22:46:11.238Z,1.10
2023-02-27T22:48:38.648Z,1.10
2023-02-27T22:51:08.615Z,1.10
2023-02-27T22:53:39.687Z,1.10
2023-02-27T22:56:12.111Z,1.10
2023-02-27T22:58:39.899Z,1.00
2023-02-27T23:01:21.103Z,1.00
2023-02-27T23:03:50.717Z,1.00
2023-02-27T23:06:21.351Z,1.00
2023-02-27T23:08:48.798Z,0.90
2023-02-27T23:11:16.762Z,0.90
2023-02-27T23:13:43.681Z,0.90
2023-02-27T23:16:13.750Z,0.90
2023-02-27T23:18:41.920Z,1.00
2023-02-27T23:21:09.703Z,1.00
2023-02-27T23:23:36.792Z,1.00
2023-02-27T23:26:05.641Z,1.00
2023-02-27T23:28:34.515Z,1.00
2023-02-27T23:31:01.909Z,0.90
2023-02-27T23:33:29.345Z,0.90
2023-02-27T23:35:57.650Z,0.90
2023-02-27T23:38:25.367Z,0.90
2023-02-27T23:40:52.085Z,0.90
2023-02-27T23:43:18.742Z,0.90
2023-02-27T23:45:45.465Z,0.90
2023-02-27T23:48:12.353Z,0.80
2023-02-27T23:50:43.788Z,0.80
2023-02-27T23:53:13.207Z,0.80
2023-02-27T23:55:40.718Z,0.80
2023-02-27T23:58:10.182Z,0.80
